Terminal Aerodrome Forecast
Issued by NWS

Home | Current Version | Previous Version | Text Only | Print | Product List | Glossary Off
Versions: 1 2 3 4 5 6 7 8 9 10 11 12 13 14 15 16 17

062
FTUS43 KMPX 182320
TAFRWF
TAF
KRWF 182320Z 1900/1924 18009KT P6SM SCT250
     FM190900 18009KT 3SM BR SCT005
     FM191200 18009KT 3/4SM BR VV002
     FM191500 17010KT 2SM BR VV005
     FM191800 17009KT 3SM BR BKN006=

USA.gov is the U.S. government's official web portal to all federal, state and local government web resources and services.